Time;durP1;ratioP1;P1;durP2;ratioP2;P2;SDS_P1;SDS_P2;PMS_P1;PMS_P2;Temp;Humidity;BMP_temperature;BMP_pressure;BME280_temperature;BME280_humidity;BME280_pressure;Samples;Min_cycle;Max_cycle;Signal;HPM_P1;HPM_P2
2023/03/23 00:01:20;;;;;;;1.67;0.93;;;;;;;20.20;41.91;100048.91;5052812;28;20033;-74
2023/03/23 00:03:50;;;;;;;1.23;0.90;;;;;;;20.90;41.95;100162.38;5050404;28;20040;-74
2023/03/23 00:06:17;;;;;;;1.60;1.20;;;;;;;20.90;41.94;100157.78;5053053;28;20053;-74
2023/03/23 00:08:47;;;;;;;1.98;1.05;;;;;;;20.79;42.09;100152.94;5071283;28;20029;-74
2023/03/23 00:11:14;;;;;;;1.70;1.13;;;;;;;20.66;42.12;100132.09;5050757;28;20014;-73
2023/03/23 00:13:42;;;;;;;1.27;0.80;;;;;;;20.86;42.01;100171.91;5049907;28;20057;-74
2023/03/23 00:16:17;;;;;;;1.60;1.00;;;;;;;20.77;42.18;100154.16;5067771;28;20033;-74
2023/03/23 00:18:54;;;;;;;1.10;0.88;;;;;;;20.69;42.44;100144.38;5053150;28;20025;-74
2023/03/23 00:21:20;;;;;;;2.22;1.20;;;;;;;20.47;42.24;100105.75;5050856;28;20104;-73
2023/03/23 00:23:46;;;;;;;2.35;1.00;;;;;;;20.79;42.00;100142.13;5068197;28;20025;-73
2023/03/23 00:26:12;;;;;;;2.50;1.40;;;;;;;20.78;41.95;100148.59;5070686;28;20049;-74
2023/03/23 00:28:38;;;;;;;1.02;0.93;;;;;;;20.76;42.10;100161.44;5051196;28;20028;-73
2023/03/23 00:31:06;;;;;;;2.28;1.00;;;;;;;20.42;42.11;100105.53;5064979;28;20025;-74
2023/03/23 00:33:40;;;;;;;1.20;1.00;;;;;;;20.75;42.30;100164.34;5047179;28;20731;-73
2023/03/23 00:36:08;;;;;;;2.00;1.00;;;;;;;20.74;42.04;100163.53;5054631;28;20025;-74
2023/03/23 00:38:34;;;;;;;1.85;1.02;;;;;;;20.41;42.13;100114.66;5046348;28;20021;-73
2023/03/23 00:41:02;;;;;;;2.45;1.30;;;;;;;20.71;42.27;100155.81;5060997;28;20045;-73
2023/03/23 00:43:28;;;;;;;1.65;1.05;;;;;;;20.32;42.44;100102.34;5050450;28;20017;-73
2023/03/23 00:45:55;;;;;;;2.33;1.15;;;;;;;20.27;42.31;100084.06;5065996;28;20029;-74
2023/03/23 00:48:24;;;;;;;3.13;1.25;;;;;;;20.68;42.36;100177.81;5046795;28;20059;-74
2023/03/23 00:50:50;;;;;;;1.33;0.90;;;;;;;20.41;42.37;100122.75;5050221;28;20478;-74
2023/03/23 00:53:17;;;;;;;4.15;1.83;;;;;;;20.65;42.50;100160.13;5060531;28;20024;-74
2023/03/23 00:55:43;;;;;;;1.17;1.00;;;;;;;20.63;42.38;100159.50;5053702;28;20029;-74
2023/03/23 00:58:09;;;;;;;1.58;0.82;;;;;;;20.18;42.54;100077.13;5069202;28;20025;-75
2023/03/23 01:00:35;;;;;;;1.42;1.08;;;;;;;20.41;42.57;100115.50;5065266;28;20025;-73
2023/03/23 01:03:00;;;;;;;1.33;1.08;;;;;;;20.59;42.45;100106.91;5060416;28;20033;-73
2023/03/23 01:05:31;;;;;;;1.60;1.00;;;;;;;20.52;42.39;100083.59;5047371;28;20025;-74
2023/03/23 01:08:01;;;;;;;1.60;1.02;;;;;;;20.41;42.40;100064.19;5054506;28;20086;-75
2023/03/23 01:10:27;;;;;;;0.95;0.80;;;;;;;20.49;42.28;100067.81;5048012;28;20033;-72
2023/03/23 01:12:53;;;;;;;2.22;1.00;;;;;;;20.55;42.62;100094.00;5062005;28;20025;-73
2023/03/23 01:15:19;;;;;;;1.67;1.50;;;;;;;20.54;42.71;100093.16;5066849;28;20096;-73
2023/03/23 01:17:45;;;;;;;2.25;1.25;;;;;;;20.37;42.34;100046.72;5053969;28;20036;-74
2023/03/23 01:20:12;;;;;;;1.58;1.08;;;;;;;20.51;42.60;100058.44;5064714;28;20032;-73
2023/03/23 01:22:38;;;;;;;1.77;1.00;;;;;;;20.19;42.69;100009.47;5062585;28;20033;-74
2023/03/23 01:25:04;;;;;;;1.85;0.95;;;;;;;20.50;42.31;100061.38;5052775;28;20038;-73
2023/03/23 01:27:30;;;;;;;1.38;0.80;;;;;;;20.40;42.40;100059.84;5052728;28;20092;-74
2023/03/23 01:29:55;;;;;;;1.20;0.85;;;;;;;20.37;42.65;100052.13;5059787;28;20052;-74
2023/03/23 01:32:21;;;;;;;1.30;1.10;;;;;;;20.36;42.54;100045.06;5048486;28;20026;-74
2023/03/23 01:34:46;;;;;;;2.60;1.00;;;;;;;20.47;42.77;100057.16;5057990;28;20025;-73
2023/03/23 01:37:11;;;;;;;2.50;1.00;;;;;;;20.38;42.57;100055.66;5060104;28;20448;-74
2023/03/23 01:39:37;;;;;;;1.40;1.10;;;;;;;20.24;42.46;100038.56;5047540;28;20041;-73
2023/03/23 01:42:03;;;;;;;1.55;1.00;;;;;;;20.08;42.49;99999.22;5054484;28;20044;-74
2023/03/23 01:44:31;;;;;;;1.45;1.02;;;;;;;20.42;42.51;100040.72;5056250;28;20022;-73
2023/03/23 01:46:57;;;;;;;1.60;0.88;;;;;;;20.41;42.43;100036.34;5051988;28;20040;-73
2023/03/23 01:49:27;;;;;;;2.00;1.30;;;;;;;20.27;42.70;100018.44;5047414;28;20567;-74
2023/03/23 01:52:00;;;;;;;1.00;0.70;;;;;;;20.29;42.64;100037.94;5062416;28;20024;-74
2023/03/23 01:54:26;;;;;;;2.33;1.80;;;;;;;20.10;42.77;99972.88;5058209;28;20025;-73
2023/03/23 01:56:56;;;;;;;1.20;1.10;;;;;;;20.26;42.53;100012.19;5049416;28;20168;-74
2023/03/23 01:59:23;;;;;;;1.75;1.05;;;;;;;20.35;42.64;100038.00;5050057;28;20037;-75
2023/03/23 02:01:52;;;;;;;1.65;1.42;;;;;;;20.04;42.82;99986.31;5057002;28;20021;-75
2023/03/23 02:04:18;;;;;;;1.65;1.08;;;;;;;20.32;42.79;100043.78;5052187;28;20032;-74
2023/03/23 02:06:44;;;;;;;1.75;1.17;;;;;;;20.29;42.51;100029.84;5047203;28;20105;-75
2023/03/23 02:09:11;;;;;;;2.40;0.93;;;;;;;20.11;42.68;100006.09;5047659;28;20021;-75
2023/03/23 02:11:36;;;;;;;1.10;0.90;;;;;;;20.08;42.75;100010.00;5054765;28;20029;-74
2023/03/23 02:14:02;;;;;;;1.45;1.13;;;;;;;20.14;42.83;100019.19;5053788;28;20039;-74
2023/03/23 02:17:03;;;;;;;1.35;1.10;;;;;;;20.28;42.58;100023.63;5039329;28;20091;-73
2023/03/23 02:20:06;;;;;;;1.45;1.08;;;;;;;19.96;42.88;99979.19;5036281;28;20058;-75
2023/03/23 02:22:44;;;;;;;1.75;0.90;;;;;;;20.26;42.53;100016.75;5035210;28;20056;-74
2023/03/23 02:25:32;;;;;;;1.63;0.93;;;;;;;20.25;42.86;100012.38;5024126;28;20141;-74
2023/03/23 02:28:22;;;;;;;1.48;0.80;;;;;;;20.22;42.92;100009.06;5025802;28;20025;-73
2023/03/23 02:31:02;;;;;;;1.58;1.10;;;;;;;20.21;42.68;100006.53;5035457;28;20022;-74
2023/03/23 02:33:56;;;;;;;1.20;1.00;;;;;;;20.21;42.82;100011.94;5030109;28;20077;-73
2023/03/23 02:36:36;;;;;;;1.38;0.98;;;;;;;20.20;42.85;100010.28;5025710;28;20091;-73
2023/03/23 02:39:10;;;;;;;1.00;0.90;;;;;;;20.18;42.95;100017.75;5020057;28;20053;-74
2023/03/23 02:41:45;;;;;;;1.58;1.10;;;;;;;20.11;42.70;100004.22;5030944;28;20033;-73
2023/03/23 02:44:12;;;;;;;1.17;0.90;;;;;;;20.16;43.01;100022.50;5027863;28;20033;-73
2023/03/23 02:46:38;;;;;;;1.55;1.30;;;;;;;20.15;42.87;100020.84;5016202;28;20061;-73
2023/03/23 02:49:05;;;;;;;1.83;1.30;;;;;;;20.13;42.83;100014.81;5009013;28;20045;-73
2023/03/23 02:51:33;;;;;;;1.20;0.82;;;;;;;19.77;42.76;99952.94;5028132;28;20065;-72
2023/03/23 02:53:58;;;;;;;1.45;0.93;;;;;;;20.13;42.98;100012.09;5021470;28;20045;-73
2023/03/23 02:56:25;;;;;;;1.98;1.02;;;;;;;20.11;42.91;100014.19;5039390;28;20021;-72
2023/03/23 02:58:51;;;;;;;1.42;0.80;;;;;;;20.03;42.72;99993.56;5069008;28;20036;-73
2023/03/23 03:01:25;;;;;;;1.52;1.10;;;;;;;20.09;43.13;100000.91;5050122;28;20060;-74
2023/03/23 03:03:52;;;;;;;1.00;0.90;;;;;;;20.08;42.95;100004.59;5053633;28;20021;-74
2023/03/23 03:06:34;;;;;;;1.45;1.23;;;;;;;20.07;43.24;100012.91;5063608;28;20040;-75
2023/03/23 03:09:11;;;;;;;2.00;1.13;;;;;;;20.00;42.84;99993.97;5064766;28;20032;-75
2023/03/23 03:11:39;;;;;;;1.40;1.00;;;;;;;19.80;43.02;99966.06;5057626;28;20021;-73
2023/03/23 03:14:11;;;;;;;1.70;1.08;;;;;;;19.39;42.91;99902.03;5067004;28;20067;-73
2023/03/23 03:16:57;;;;;;;1.73;1.02;;;;;;;20.01;42.94;100003.75;5056601;28;20029;-73
2023/03/23 03:19:29;;;;;;;1.67;1.40;;;;;;;20.01;43.17;100013.69;5053775;28;20037;-73
2023/03/23 03:21:57;;;;;;;1.48;1.00;;;;;;;19.74;42.93;99962.25;5053408;28;20025;-73
2023/03/23 03:24:24;;;;;;;1.45;1.00;;;;;;;20.00;43.08;100012.03;5065998;28;20021;-73
2023/03/23 03:26:53;;;;;;;2.45;1.20;;;;;;;19.98;43.04;100006.84;5048506;28;20033;-74
2023/03/23 03:29:22;;;;;;;1.67;0.90;;;;;;;19.89;43.08;99997.22;5045806;28;20025;-74
2023/03/23 03:31:49;;;;;;;1.50;0.93;;;;;;;19.83;43.05;99988.03;5042471;28;20028;-74
2023/03/23 03:34:17;;;;;;;1.00;0.88;;;;;;;19.90;43.34;100009.69;5039062;28;20021;-74
2023/03/23 03:36:45;;;;;;;1.17;1.08;;;;;;;19.94;43.26;100005.56;5063181;28;20060;-73
2023/03/23 03:39:12;;;;;;;1.77;1.00;;;;;;;19.93;43.15;100009.28;5073145;28;20025;-74
2023/03/23 03:41:38;;;;;;;1.45;0.88;;;;;;;19.81;43.14;99983.91;5061620;28;20052;-73
2023/03/23 03:44:05;;;;;;;0.90;0.77;;;;;;;19.91;43.23;100004.06;5048079;28;20478;-73
2023/03/23 03:46:30;;;;;;;2.17;1.00;;;;;;;19.89;43.37;100006.16;5063190;28;20394;-73
2023/03/23 03:48:57;;;;;;;1.83;1.20;;;;;;;19.89;43.15;100002.63;5062042;28;20021;-74
2023/03/23 03:51:23;;;;;;;1.25;1.00;;;;;;;19.89;43.18;100002.63;5052740;28;20037;-74
2023/03/23 03:53:51;;;;;;;1.58;1.05;;;;;;;19.88;43.12;100001.78;5059454;28;20039;-73
2023/03/23 03:56:16;;;;;;;1.17;1.08;;;;;;;19.87;43.50;99993.88;5057168;28;20049;-73
2023/03/23 03:58:42;;;;;;;1.20;1.10;;;;;;;19.86;43.21;99995.75;5056217;28;20047;-74
2023/03/23 04:01:13;;;;;;;1.35;1.00;;;;;;;19.65;43.23;99960.75;5060733;28;20033;-74
2023/03/23 04:03:39;;;;;;;1.63;1.10;;;;;;;19.84;43.48;99986.19;5059633;28;20048;-72
2023/03/23 04:06:04;;;;;;;1.58;1.00;;;;;;;19.52;43.24;99936.34;5022603;28;1050773;-73
2023/03/23 04:08:30;;;;;;;1.00;0.88;;;;;;;19.63;43.19;99950.16;5059538;28;20060;-72
2023/03/23 04:10:55;;;;;;;1.70;1.00;;;;;;;19.82;43.09;99985.56;5050988;28;20029;-74
2023/03/23 04:13:21;;;;;;;1.45;1.10;;;;;;;19.54;43.30;99934.28;5050213;28;20455;-73
2023/03/23 04:15:47;;;;;;;1.10;0.90;;;;;;;19.79;43.51;99978.66;5057091;28;20036;-73
2023/03/23 04:18:14;;;;;;;1.58;1.00;;;;;;;19.79;43.16;99985.94;5053114;28;20486;-73
2023/03/23 04:20:47;;;;;;;1.33;1.15;;;;;;;19.78;43.13;99984.28;5063697;28;20459;-73
2023/03/23 04:23:13;;;;;;;1.38;1.00;;;;;;;19.48;43.38;99923.25;5051935;28;20076;-73
2023/03/23 04:25:41;;;;;;;1.30;1.10;;;;;;;19.77;43.09;99966.44;5055749;28;20030;-72
2023/03/23 04:28:06;;;;;;;1.15;0.90;;;;;;;19.73;43.19;99972.22;5051867;28;20033;-72
2023/03/23 04:30:32;;;;;;;1.77;1.00;;;;;;;19.68;43.60;99969.28;5050085;28;20040;-72
2023/03/23 04:33:00;;;;;;;2.45;1.25;;;;;;;19.47;43.14;99937.78;5049896;28;20028;-73
2023/03/23 04:35:26;;;;;;;1.45;1.08;;;;;;;19.71;43.33;99968.91;5039312;28;20029;-73
2023/03/23 04:37:52;;;;;;;1.55;1.10;;;;;;;19.46;43.39;99944.19;5048398;28;20226;-73
2023/03/23 04:40:18;;;;;;;2.45;1.38;;;;;;;19.38;43.46;99928.16;5050320;28;20544;-73
2023/03/23 04:42:45;;;;;;;1.35;1.00;;;;;;;19.67;43.51;99975.72;5067302;28;20025;-73
2023/03/23 04:45:15;;;;;;;1.63;0.90;;;;;;;19.34;43.46;99915.28;5051608;28;20025;-73
2023/03/23 04:47:41;;;;;;;1.98;1.00;;;;;;;19.68;43.67;99973.84;5065123;28;20028;-73
2023/03/23 04:50:08;;;;;;;1.10;1.00;;;;;;;19.66;43.35;99967.78;5065539;28;20029;-73
2023/03/23 04:52:34;;;;;;;1.45;1.10;;;;;;;19.65;43.38;99975.06;5051884;28;20393;-72
2023/03/23 04:54:59;;;;;;;1.20;1.10;;;;;;;19.65;43.43;99975.06;5050197;28;20033;-73
2023/03/23 04:57:27;;;;;;;1.65;1.10;;;;;;;19.64;43.41;99978.78;5051539;28;20029;-74
2023/03/23 04:59:53;;;;;;;1.65;1.23;;;;;;;19.63;43.19;99977.13;5051014;28;20029;-73
2023/03/23 05:02:18;;;;;;;1.33;1.05;;;;;;;19.29;43.55;99931.22;5051513;28;20040;-73
2023/03/23 05:04:44;;;;;;;1.40;1.08;;;;;;;19.10;43.15;99905.75;5046576;28;20498;-74
2023/03/23 05:07:10;;;;;;;2.28;1.20;;;;;;;19.59;43.59;99983.91;5053424;28;20072;-73
2023/03/23 05:09:35;;;;;;;1.00;0.80;;;;;;;19.37;43.47;99956.16;5066314;28;20037;-72
2023/03/23 05:12:06;;;;;;;1.25;0.93;;;;;;;19.31;43.53;99943.44;5052046;28;20032;-73
2023/03/23 05:14:31;;;;;;;1.48;1.13;;;;;;;19.57;43.58;99996.75;5035085;28;20032;-73
2023/03/23 05:16:56;;;;;;;1.85;1.10;;;;;;;19.56;43.46;99995.06;5068862;28;20505;-74
2023/03/23 05:19:22;;;;;;;1.73;0.93;;;;;;;19.57;43.50;100001.31;5047859;28;20367;-73
2023/03/23 05:21:47;;;;;;;2.55;1.45;;;;;;;19.58;43.94;100001.13;5064338;28;20056;-73
2023/03/23 05:24:12;;;;;;;3.15;1.20;;;;;;;19.58;43.64;100008.34;5049559;28;20083;-73
2023/03/23 05:26:37;;;;;;;2.53;1.20;;;;;;;19.58;43.81;100003.81;5049842;28;20025;-75
2023/03/23 05:29:03;;;;;;;1.80;1.10;;;;;;;19.29;43.32;99967.06;5050216;28;20052;-74
2023/03/23 05:31:28;;;;;;;4.65;1.23;;;;;;;19.51;43.53;99994.84;5049187;28;20474;-73
2023/03/23 05:33:53;;;;;;;2.55;1.20;;;;;;;19.59;43.56;100016.25;5055712;28;20028;-73
2023/03/23 05:36:19;;;;;;;3.10;1.10;;;;;;;19.59;43.52;100018.97;5048470;28;20059;-74
2023/03/23 05:38:47;;;;;;;1.40;1.30;;;;;;;19.58;43.84;100028.09;5045308;28;20060;-70
2023/03/23 05:41:13;;;;;;;2.13;1.05;;;;;;;19.49;43.82;100016.56;5054885;28;20127;-70
2023/03/23 05:43:39;;;;;;;1.75;1.23;;;;;;;19.58;43.71;100024.53;5055627;28;20025;-70
2023/03/23 05:46:04;;;;;;;1.77;1.20;;;;;;;19.49;44.04;100018.44;5050777;28;20045;-71
2023/03/23 05:48:29;;;;;;;2.08;1.00;;;;;;;19.58;44.03;100019.13;5044966;28;20044;-70
2023/03/23 05:50:54;;;;;;;2.13;1.10;;;;;;;19.35;44.03;99990.53;5054133;28;20041;-70
2023/03/23 05:53:20;;;;;;;2.75;1.40;;;;;;;19.59;44.29;100018.97;5056417;28;20067;-70
2023/03/23 05:55:46;;;;;;;1.52;0.88;;;;;;;19.21;44.14;99968.03;5050038;28;20093;-71
2023/03/23 05:58:11;;;;;;;2.65;1.20;;;;;;;19.38;44.43;99992.84;5049043;28;20437;-71
2023/03/23 06:00:37;;;;;;;1.30;1.00;;;;;;;19.45;44.73;100019.84;5057356;28;20032;-70
2023/03/23 06:03:03;;;;;;;1.65;0.93;;;;;;;19.53;44.58;100030.50;5057877;28;20072;-71
2023/03/23 06:05:28;;;;;;;3.75;1.40;;;;;;;19.59;44.53;100032.44;5048696;28;20549;-70
2023/03/23 06:07:54;;;;;;;2.33;1.23;;;;;;;19.60;44.58;100038.66;5046401;28;20084;-75
2023/03/23 06:10:20;;;;;;;2.25;1.25;;;;;;;19.59;44.48;100040.53;5057625;28;20036;-71
2023/03/23 06:12:45;;;;;;;1.17;1.00;;;;;;;19.39;44.80;100023.34;5051555;28;20029;-71
2023/03/23 06:15:11;;;;;;;1.48;1.05;;;;;;;19.27;44.50;100008.72;5047590;28;20040;-70
2023/03/23 06:17:37;;;;;;;2.78;0.95;;;;;;;19.39;44.84;100018.78;5052988;28;20075;-70
2023/03/23 06:20:07;;;;;;;2.30;1.17;;;;;;;19.28;44.82;100007.66;5044914;28;20809;-70
2023/03/23 06:22:32;;;;;;;1.70;1.20;;;;;;;19.45;44.76;100044.13;5066348;28;20028;-70
2023/03/23 06:24:57;;;;;;;5.15;1.20;;;;;;;19.23;45.04;100024.41;5053164;28;20036;-70
2023/03/23 06:27:23;;;;;;;1.55;1.20;;;;;;;19.31;44.70;100043.16;5057939;28;20462;-71
2023/03/23 06:29:50;;;;;;;1.13;0.95;;;;;;;19.44;44.76;100053.25;5065742;28;20075;-71
2023/03/23 06:32:15;;;;;;;3.80;1.13;;;;;;;19.58;44.94;100124.28;5057582;28;20028;-72
2023/03/23 06:34:43;;;;;;;2.13;1.30;;;;;;;19.58;44.73;100089.25;5058893;28;20128;-72
2023/03/23 06:37:09;;;;;;;1.85;1.13;;;;;;;19.35;45.11;100063.31;5057686;28;20096;-71
2023/03/23 06:39:36;;;;;;;5.07;1.65;;;;;;;19.55;44.92;100106.66;5055816;28;20025;-71
2023/03/23 06:42:01;;;;;;;2.75;1.20;;;;;;;19.54;45.19;100114.91;5055051;28;20051;-71
2023/03/23 06:44:27;;;;;;;2.20;1.02;;;;;;;19.53;45.04;100114.09;5060200;28;20063;-70
2023/03/23 06:46:52;;;;;;;2.58;1.40;;;;;;;19.37;45.24;100085.53;5059108;28;20031;-70
2023/03/23 06:49:18;;;;;;;2.13;1.10;;;;;;;19.51;45.42;100112.63;5054359;28;20043;-70
2023/03/23 06:51:43;;;;;;;2.47;1.30;;;;;;;19.49;45.37;100116.31;5057976;28;20021;-71
2023/03/23 06:54:08;;;;;;;4.65;1.30;;;;;;;19.24;45.36;100069.19;5058112;28;20029;-72
2023/03/23 06:56:34;;;;;;;2.72;1.50;;;;;;;19.33;45.24;100097.72;5057551;28;20025;-71
2023/03/23 06:58:59;;;;;;;2.15;1.38;;;;;;;19.46;45.25;100118.59;5053459;28;20028;-71
2023/03/23 07:01:24;;;;;;;2.53;1.17;;;;;;;19.13;45.48;100081.34;5057730;28;20029;-71
2023/03/23 07:03:50;;;;;;;2.55;1.20;;;;;;;19.34;45.51;100106.66;5058650;28;20032;-71
2023/03/23 07:06:15;;;;;;;2.25;1.05;;;;;;;19.20;45.52;100098.41;5060204;28;20119;-71
2023/03/23 07:08:41;;;;;;;3.58;1.27;;;;;;;19.29;45.17;100103.69;5061665;28;20020;-70
2023/03/23 07:11:07;;;;;;;1.60;1.20;;;;;;;19.18;45.45;100080.75;5058408;28;20034;-72
2023/03/23 07:13:33;;;;;;;2.60;1.20;;;;;;;19.26;45.62;100107.59;5054600;28;20029;-69
2023/03/23 07:15:59;;;;;;;2.97;1.10;;;;;;;19.42;45.33;100123.53;5052246;28;20036;-70
2023/03/23 07:18:24;;;;;;;2.85;1.38;;;;;;;19.17;44.95;100092.56;5053538;28;20067;-70
2023/03/23 07:20:51;;;;;;;3.03;1.40;;;;;;;19.39;45.21;100123.06;5053543;28;20067;-70
2023/03/23 07:23:17;;;;;;;2.95;1.48;;;;;;;19.28;45.47;100116.31;5049380;28;20052;-71
2023/03/23 07:25:43;;;;;;;1.55;1.27;;;;;;;19.35;45.21;100125.31;5050743;28;20030;-72
2023/03/23 07:28:09;;;;;;;3.88;1.50;;;;;;;19.06;45.62;100093.88;5052806;28;20029;-71
2023/03/23 07:30:34;;;;;;;2.15;1.05;;;;;;;19.32;45.56;100128.38;5041039;28;20059;-70
2023/03/23 07:33:04;;;;;;;2.40;1.38;;;;;;;19.11;45.39;100106.78;5053520;28;20029;-70
2023/03/23 07:35:30;;;;;;;1.92;1.33;;;;;;;19.11;45.40;100104.91;5060264;28;20075;-71
2023/03/23 07:37:55;;;;;;;6.07;1.52;;;;;;;19.12;45.42;100105.78;5052284;28;20897;-72
2023/03/23 07:40:21;;;;;;;2.80;1.40;;;;;;;19.19;45.26;100117.44;5060529;28;20058;-70
2023/03/23 07:42:51;;;;;;;1.27;0.98;;;;;;;19.29;45.11;100130.66;5056867;28;20052;-70
2023/03/23 07:45:17;;;;;;;3.85;1.60;;;;;;;19.01;45.28;100101.69;5056895;28;20032;-70
2023/03/23 07:47:42;;;;;;;3.33;1.38;;;;;;;19.27;45.49;100143.47;5058652;28;20029;-70
2023/03/23 07:50:08;;;;;;;4.28;1.40;;;;;;;19.27;45.24;100149.69;5054465;28;20031;-71
2023/03/23 07:52:36;;;;;;;2.17;1.13;;;;;;;19.08;45.44;100121.50;5050641;28;20040;-70
2023/03/23 07:55:04;;;;;;;3.25;1.75;;;;;;;19.26;45.42;100150.72;5055455;28;20061;-71
2023/03/23 07:57:30;;;;;;;2.92;1.20;;;;;;;19.03;45.53;100113.16;5056526;28;20037;-71
2023/03/23 07:59:57;;;;;;;2.58;1.40;;;;;;;18.86;45.01;100085.59;5062147;28;20397;-71
2023/03/23 08:02:23;;;;;;;2.97;1.30;;;;;;;19.28;45.40;100154.03;5056909;28;20048;-71
2023/03/23 08:04:49;;;;;;;2.13;1.30;;;;;;;19.28;45.04;100154.03;5077569;28;20017;-71
2023/03/23 08:07:16;;;;;;;1.83;1.20;;;;;;;19.21;45.17;100143.19;5056227;28;20060;-72
2023/03/23 08:09:41;;;;;;;2.58;1.50;;;;;;;19.28;45.24;100161.28;5060117;28;20025;-71
2023/03/23 08:12:06;;;;;;;1.98;1.48;;;;;;;19.08;45.16;100123.34;5054011;28;20032;-70
2023/03/23 08:14:32;;;;;;;2.78;1.58;;;;;;;19.15;45.41;100138.53;5059163;28;20529;-69
2023/03/23 08:16:58;;;;;;;4.32;2.00;;;;;;;18.86;45.32;100084.72;5069438;28;20041;-70
2023/03/23 08:19:23;;;;;;;3.15;1.80;;;;;;;19.11;45.53;100150.72;5064134;28;20057;-71
2023/03/23 08:21:49;;;;;;;3.90;1.40;;;;;;;19.27;45.32;100183.88;5060244;28;20059;-72
2023/03/23 08:24:15;;;;;;;4.07;1.20;;;;;;;19.25;45.42;100178.69;5058544;28;20014;-71
2023/03/23 08:26:41;;;;;;;2.63;1.40;;;;;;;19.12;45.27;100162.38;5054830;28;20037;-70
2023/03/23 08:29:07;;;;;;;4.68;1.33;;;;;;;19.27;45.53;100184.72;5049499;28;20037;-72
2023/03/23 08:31:34;;;;;;;3.60;1.45;;;;;;;18.56;45.31;100076.63;5055258;28;20053;-71
2023/03/23 08:34:00;;;;;;;3.03;1.38;;;;;;;19.27;45.49;100191.97;5056284;28;20028;-73
2023/03/23 08:36:26;;;;;;;2.55;1.25;;;;;;;18.97;45.35;100146.19;5049948;28;20033;-74
2023/03/23 08:38:52;;;;;;;2.42;1.40;;;;;;;19.03;45.23;100147.31;5060220;28;20481;-72
2023/03/23 08:41:17;;;;;;;3.00;1.50;;;;;;;19.20;45.26;100181.13;5058773;28;20473;-72
2023/03/23 08:43:43;;;;;;;4.05;1.30;;;;;;;19.29;45.58;100203.41;5070428;28;20033;-72
2023/03/23 08:46:10;;;;;;;3.17;1.40;;;;;;;19.17;45.45;100186.88;5069310;28;20035;-72
2023/03/23 08:48:36;;;;;;;2.22;1.15;;;;;;;18.92;45.27;100146.78;5056040;28;20059;-71
2023/03/23 08:51:03;;;;;;;2.58;1.10;;;;;;;19.21;45.11;100189.00;5051691;28;20517;-71
2023/03/23 08:53:30;;;;;;;3.90;1.90;;;;;;;19.28;45.13;100202.56;5050788;28;20060;-71
2023/03/23 08:55:56;;;;;;;3.22;1.20;;;;;;;19.30;45.53;100205.09;5050244;28;20393;-70
2023/03/23 08:58:22;;;;;;;4.07;1.42;;;;;;;19.09;45.22;100171.66;5054843;28;20028;-70
2023/03/23 09:00:48;;;;;;;4.97;1.55;;;;;;;19.32;45.53;100198.47;5054715;28;20112;-70
2023/03/23 09:03:13;;;;;;;2.50;1.15;;;;;;;19.34;45.76;100185.66;5052228;28;20040;-70
2023/03/23 09:05:42;;;;;;;2.42;1.33;;;;;;;19.37;45.53;100187.97;5068273;28;20030;-71
2023/03/23 09:08:08;;;;;;;2.33;1.73;;;;;;;19.32;45.88;100187.69;5037063;28;20050;-70
2023/03/23 09:10:33;;;;;;;3.08;1.30;;;;;;;19.20;45.59;100171.19;5052829;28;20032;-71
2023/03/23 09:12:59;;;;;;;2.75;1.30;;;;;;;19.42;45.49;100206.28;5046854;28;20029;-72
2023/03/23 09:15:24;;;;;;;4.22;1.70;;;;;;;19.34;45.56;100201.81;5052899;28;20040;-73
2023/03/23 09:17:51;;;;;;;2.50;1.25;;;;;;;19.14;45.51;100163.84;5049728;28;20080;-70
2023/03/23 09:20:20;;;;;;;2.38;1.42;;;;;;;19.47;45.58;100198.44;5060020;28;20037;-71
2023/03/23 09:22:49;;;;;;;5.28;1.52;;;;;;;19.39;45.24;100199.38;5050864;28;20486;-71
2023/03/23 09:25:18;;;;;;;2.92;1.00;;;;;;;19.01;45.51;100154.75;5066219;28;20025;-71
2023/03/23 09:27:46;;;;;;;3.70;2.22;;;;;;;19.26;45.34;100196.53;5066493;28;20025;-71
2023/03/23 09:30:14;;;;;;;2.90;1.20;;;;;;;19.44;45.40;100228.47;5061076;28;20036;-71
2023/03/23 09:32:39;;;;;;;3.30;2.05;;;;;;;19.34;45.75;100204.50;5050296;28;20025;-71
2023/03/23 09:35:08;;;;;;;3.70;1.20;;;;;;;19.49;45.63;100216.09;5052553;28;20029;-71
2023/03/23 09:37:35;;;;;;;2.47;1.20;;;;;;;19.57;45.50;100233.19;5063323;28;20031;-71
2023/03/23 09:40:03;;;;;;;2.60;1.00;;;;;;;19.31;45.21;100182.50;5044334;28;20054;-71
2023/03/23 09:42:54;;;;;;;3.07;1.17;;;;;;;19.60;45.56;100224.72;5055146;28;20068;-71
2023/03/23 09:45:26;;;;;;;1.35;0.98;;;;;;;19.62;45.47;100223.53;5047251;28;20120;-70
2023/03/23 09:48:19;;;;;;;2.90;1.33;;;;;;;19.66;45.41;100226.69;5062032;28;20021;-71
2023/03/23 09:50:48;;;;;;;3.45;1.15;;;;;;;19.68;45.37;100238.13;5070580;28;20029;-72
2023/03/23 09:53:18;;;;;;;3.33;1.08;;;;;;;19.40;45.54;100175.97;5060101;28;20051;-71
2023/03/23 09:55:45;;;;;;;2.53;1.30;;;;;;;19.73;45.23;100228.44;5057450;28;20037;-71
2023/03/23 09:58:23;;;;;;;2.78;1.38;;;;;;;19.77;45.27;100230.75;5067436;28;20021;-70
2023/03/23 10:01:02;;;;;;;1.80;0.95;;;;;;;19.53;45.20;100196.84;5056748;28;20025;-71
2023/03/23 10:03:33;;;;;;;3.17;1.33;;;;;;;19.67;45.28;100221.13;5067357;28;20509;-70
2023/03/23 10:05:58;;;;;;;3.13;1.13;;;;;;;19.85;45.19;100249.53;5045105;28;20061;-71
2023/03/23 10:08:26;;;;;;;8.15;1.55;;;;;;;19.72;45.21;100225.94;5072606;28;20126;-71
2023/03/23 10:11:02;;;;;;;1.80;0.95;;;;;;;19.89;44.99;100242.72;5052720;28;20025;-71
2023/03/23 10:13:34;;;;;;;2.75;1.17;;;;;;;19.94;45.03;100253.78;5043288;28;20029;-72
2023/03/23 10:16:01;;;;;;;2.78;1.25;;;;;;;19.93;45.01;100239.44;5059592;28;20049;-71
2023/03/23 10:18:36;;;;;;;5.80;1.08;;;;;;;19.91;44.66;100236.09;5057820;28;20059;-72
2023/03/23 10:21:02;;;;;;;2.63;1.15;;;;;;;19.77;44.74;100203.78;5068258;28;20139;-71
2023/03/23 10:23:54;;;;;;;3.15;1.52;;;;;;;20.01;44.82;100243.91;5047640;28;20059;-72
2023/03/23 10:26:44;;;;;;;3.03;1.63;;;;;;;19.87;44.90;100207.81;5049379;28;20060;-71
2023/03/23 10:29:22;;;;;;;4.40;1.80;;;;;;;19.76;44.71;100210.22;5054358;28;20052;-71
2023/03/23 10:31:55;;;;;;;3.08;1.50;;;;;;;20.12;44.48;100256.03;5058697;28;20029;-71
2023/03/23 10:34:32;;;;;;;3.58;1.45;;;;;;;19.98;44.66;100222.69;5072456;28;20056;-71
2023/03/23 10:37:12;;;;;;;4.57;1.60;;;;;;;20.20;44.78;100261.31;5058026;28;20036;-70
2023/03/23 10:39:52;;;;;;;3.03;1.30;;;;;;;20.24;44.39;100251.78;5053092;28;20085;-69
2023/03/23 10:42:22;;;;;;;3.67;1.38;;;;;;;19.79;44.50;100170.19;5049727;28;20032;-70
2023/03/23 10:44:48;;;;;;;3.38;1.27;;;;;;;20.21;44.15;100233.28;5050983;28;20017;-70
2023/03/23 10:47:15;;;;;;;2.47;1.08;;;;;;;20.42;44.52;100270.22;5058431;28;20029;-70
2023/03/23 10:49:43;;;;;;;2.60;1.13;;;;;;;20.35;44.38;100245.06;5055272;28;20095;-70
2023/03/23 10:52:26;;;;;;;2.83;1.27;;;;;;;20.49;43.84;100249.56;5064035;28;20025;-70
2023/03/23 10:55:15;;;;;;;3.83;1.40;;;;;;;20.59;44.04;100268.94;5067549;28;20026;-71
2023/03/23 10:58:02;;;;;;;2.67;1.25;;;;;;;20.57;43.90;100249.41;5069053;28;20021;-71
2023/03/23 11:00:29;;;;;;;3.85;1.38;;;;;;;20.62;43.81;100254.22;5050724;28;20097;-71
2023/03/23 11:03:02;;;;;;;3.35;1.55;;;;;;;20.74;43.85;100258.06;5053438;28;20025;-71
2023/03/23 11:05:34;;;;;;;4.15;1.50;;;;;;;20.78;43.92;100275.56;5040429;28;20010;-71
2023/03/23 11:08:01;;;;;;;4.88;1.58;;;;;;;20.77;43.77;100265.75;5051300;28;20029;-71
2023/03/23 11:10:49;;;;;;;3.30;1.00;;;;;;;20.87;43.65;100274.38;5068446;28;20052;-71
2023/03/23 11:13:17;;;;;;;4.63;1.27;;;;;;;20.92;43.38;100268.38;5051093;28;20034;-72
2023/03/23 11:15:45;;;;;;;2.75;1.00;;;;;;;20.66;43.34;100210.41;5053018;28;20025;-70
2023/03/23 11:18:13;;;;;;;2.95;1.35;;;;;;;21.02;43.52;100263.44;5057911;28;20055;-72
2023/03/23 11:20:41;;;;;;;2.75;1.50;;;;;;;20.86;43.74;100237.59;5050975;28;20067;-71
2023/03/23 11:23:07;;;;;;;;;;;;;;;21.09;43.60;100264.31;5055162;28;20032;-72
2023/03/23 11:25:34;;;;;;;3.00;1.20;;;;;;;21.10;43.58;100284.91;5049315;28;19952;-72
2023/03/23 11:28:01;;;;;;;4.63;1.65;;;;;;;20.97;43.44;100245.13;5053533;28;20512;-72
2023/03/23 11:30:27;;;;;;;3.80;1.20;;;;;;;21.16;43.53;100276.03;5055587;28;20089;-71
2023/03/23 11:32:54;;;;;;;4.22;1.60;;;;;;;21.21;43.41;100272.72;5054697;28;20017;-72